Latest Weather Observations for Sheoaks

IDV60801

Issued at 5:32 am EST Wednesday 27 July 2016 (issued every 30 minutes, with the page automatically refreshed every 10 minutes)

About weather observations | Map of weather stations | Latest weather observations for VIC | Other Formats
Station Details ID: 087168 Name: SHEOAKS Lat: -37.91 Lon: 144.13 Height: 236.7 m
Data from the previous 72 hours. | See also: Recent months at Sheoaks
Date/Time
EST
Temp
°C
App
Temp
°C
Dew
Point
°C
Rel
Hum
%
Delta-T
°C
Wind Press
QNH
hPa
Press
MSL
hPa
Rain since
9am
mm
Dir  Spd
km/h
Gust
km/h
Spd
kts
Gust
kts
27/05:30am 8.0 3.0 6.3 89 0.8 WNW 22 35 12 19 1007.4 1007.7 0.0
27/05:00am 8.3 2.9 6.3 87 0.9 WNW 24 37 13 20 1006.9 1007.3 0.0
27/04:30am 8.1 3.3 5.7 85 1.1 WNW 20 32 11 17 1006.3 1006.7 0.0
27/04:00am 7.8 3.1 5.3 84 1.1 WNW 19 30 10 16 1005.7 1006.0 0.0
27/03:30am 7.8 3.4 4.9 82 1.3 NW 17 30 9 16 1005.4 1005.7 0.0
27/03:00am 7.7 3.3 4.7 81 1.3 NW 17 26 9 14 1005.1 1005.4 0.0
27/02:30am 7.5 2.6 4.3 80 1.4 NW 19 28 10 15 1004.6 1004.9 0.0
27/02:00am 7.1 3.0 4.1 81 1.3 NW 15 30 8 16 1004.2 1004.5 0.0
27/01:30am 7.2 2.1 4.0 80 1.4 NW 20 30 11 16 1004.0 1004.3 0.0
27/01:00am 7.4 1.5 3.8 78 1.6 NNW 24 37 13 20 1004.0 1004.3 0.0
27/12:30am 7.6 1.7 3.8 77 1.7 NNW 24 39 13 21 1004.0 1004.3 0.0
27/12:00am 7.7 1.4 3.9 77 1.7 NNW 26 43 14 23 1004.0 1004.3 0.0
 
Date/Time
EST
Temp
°C
App
Temp
°C
Dew
Point
°C
Rel
Hum
%
Delta-T
°C
Wind Press
QNH
hPa
Press
MSL
hPa
Rain since
9am
mm
Dir  Spd
km/h
Gust
km/h
Spd
kts
Gust
kts
26/11:35pm 7.5 0.8 3.9 78 1.6 NNW 28 48 15 26 1003.8 1004.1 0.0
26/11:30pm 7.6 0.2 3.8 77 1.7 NNW 32 48 17 26 1003.8 1004.1 0.0
26/11:05pm 7.7 0.2 3.6 75 1.8 NNW 32 52 17 28 1003.5 1003.8 0.0
26/11:00pm 7.6 0.1 3.3 74 1.9 NNW 32 50 17 27 1003.7 1004.0 0.0
26/10:30pm 7.8 0.7 3.3 73 1.9 NNW 30 54 16 29 1003.6 1003.9 0.0
26/10:00pm 7.7 0.1 3.0 72 2.0 NNW 32 50 17 27 1003.8 1004.1 0.0
26/09:30pm 7.8 0.2 3.1 72 2.0 NNW 32 50 17 27 1004.0 1004.3 0.0
26/09:00pm 7.9 -0.2 3.0 71 2.1 NNW 35 54 19 29 1004.2 1004.5 0.0
26/08:30pm 7.8 0.0 2.9 71 2.1 NNW 33 56 18 30 1004.4 1004.7 0.0
26/08:00pm 7.8 0.2 3.1 72 2.0 NNW 32 57 17 31 1004.7 1005.0 0.0
26/07:30pm 7.8 1.0 3.1 72 2.0 NNW 28 46 15 25 1005.1 1005.4 0.0
26/07:00pm 7.7 0.2 3.2 73 1.9 NNW 32 50 17 27 1005.2 1005.5 0.0
26/06:39pm 7.9 -0.2 3.2 72 2.0 NNW 35 54 19 29 1005.1 1005.4 0.0
26/06:30pm 7.8 0.7 3.3 73 1.9 NNW 30 46 16 25 1005.4 1005.7 0.0
26/06:00pm 7.8 1.5 3.5 74 1.9 NNW 26 43 14 23 1005.7 1006.0 0.0
26/05:30pm 7.7 1.7 3.2 73 1.9 NNW 24 39 13 21 1006.1 1006.4 0.0
26/05:00pm 7.5 2.2 3.0 73 1.9 NNW 20 32 11 17 1006.6 1007.0 0.0
26/04:30pm 7.8 1.4 3.1 72 2.0 NNW 26 39 14 21 1006.8 1007.2 0.0
26/04:00pm 8.0 1.6 3.1 71 2.1 NNW 26 43 14 23 1007.3 1007.6 0.0
26/03:30pm 7.8 1.3 2.9 71 2.1 NNW 26 46 14 25 1007.9 1008.2 0.0
26/03:12pm 7.9 1.0 2.6 69 2.2 NNW 28 48 15 26 1007.9 1008.2 0.0
26/03:00pm 8.0 1.5 2.5 68 2.3 NNW 26 39 14 21 1008.1 1008.4 0.0
26/02:31pm 7.8 0.8 2.1 67 2.4 NNW 28 46 15 25 1008.6 1008.9 0.0
26/02:30pm 7.9 0.6 2.2 67 2.4 NNW 30 46 16 25 1008.6 1008.9 0.0
26/02:13pm 7.7 0.7 2.2 68 2.3 NNW 28 46 15 25 1008.8 1009.1 0.0
26/02:00pm 7.6 1.0 2.3 69 2.2 NNW 26 43 14 23 1009.1 1009.4 0.0
26/01:30pm 7.5 0.2 2.4 70 2.1 NNW 30 44 16 24 1009.7 1010.0 0.0
26/01:17pm 7.4 0.4 2.1 69 2.2 NNW 28 50 15 27 1009.7 1010.0 0.0
26/01:00pm 7.3 0.7 2.2 70 2.1 NNW 26 39 14 21 1009.9 1010.3 0.0
26/12:30pm 7.7 1.6 2.8 71 2.1 NNW 24 39 13 21 1010.5 1010.9 0.0
26/12:00pm 7.2 1.4 2.1 70 2.1 NNW 22 35 12 19 1011.2 1011.6 0.0
26/11:30am 7.0 0.8 2.1 71 2.0 NNW 24 43 13 23 1011.4 1011.8 0.0
26/11:00am 6.5 0.2 1.8 72 1.9 NNW 24 39 13 21 1011.7 1012.0 0.0
26/10:30am 6.5 0.6 2.0 73 1.9 NNW 22 35 12 19 1011.8 1012.1 0.0
26/10:00am 6.2 0.3 1.9 74 1.8 NNW 22 39 12 21 1011.7 1012.0 0.0
26/09:30am 5.8 0.2 1.5 74 1.7 NNW 20 33 11 18 1011.4 1011.8 0.0
26/09:00am 5.9 0.9 1.2 72 1.9 NNW 17 26 9 14 1011.6 1011.9 5.0
26/08:30am 5.4 0.7 1.0 73 1.8 NW 15 26 8 14 1011.4 1011.8 5.0
26/08:00am 4.7 0.0 1.0 77 1.5 NNW 15 22 8 12 1011.4 1011.8 5.0
26/07:30am 4.5 0.2 0.8 77 1.5 NNW 13 20 7 11 1010.9 1011.3 5.0
26/07:00am 4.9 0.6 0.9 75 1.6 NW 13 20 7 11 1010.3 1010.7 5.0
26/06:30am 5.3 -0.2 0.9 73 1.7 NW 19 30 10 16 1009.7 1010.0 5.0
26/06:00am 5.6 -0.8 1.2 73 1.8 WNW 24 41 13 22 1009.0 1009.3 5.0
26/05:38am 5.5 -1.7 0.9 72 1.8 WNW 28 54 15 29 1008.6 1008.9 5.0
26/05:30am 5.3 -2.2 0.9 73 1.7 WNW 30 44 16 24 1008.6 1008.9 5.0
26/05:00am 5.4 -1.4 1.0 73 1.8 WNW 26 44 14 24 1008.4 1008.7 5.0
26/04:53am 5.4 -1.8 1.0 73 1.8 WNW 28 46 15 25 1008.5 1008.8 5.0
26/04:30am 5.5 -1.7 0.7 71 1.9 WNW 28 43 15 23 1008.4 1008.7 5.0
26/04:04am 5.6 -1.5 1.2 73 1.8 WNW 28 50 15 27 1008.3 1008.6 5.0
26/04:00am 5.5 -1.3 1.1 73 1.8 WNW 26 44 14 24 1008.4 1008.7 5.0
26/03:30am 5.6 -1.2 1.0 72 1.8 WNW 26 43 14 23 1008.3 1008.6 5.0
26/03:20am 5.8 -1.4 1.0 71 1.9 WNW 28 48 15 26 1008.2 1008.5 5.0
26/03:00am 5.9 -1.2 1.1 71 1.9 WNW 28 43 15 23 1008.2 1008.5 5.0
26/02:30am 5.7 -1.1 0.9 71 1.9 WNW 26 43 14 23 1008.3 1008.6 5.0
26/02:08am 5.8 -1.8 0.6 69 2.1 WNW 30 48 16 26 1008.0 1008.3 5.0
26/02:00am 5.9 -1.7 0.5 68 2.1 WNW 30 46 16 25 1008.0 1008.3 5.0
26/01:31am 6.3 -0.9 0.8 68 2.2 WNW 28 46 15 25 1008.0 1008.3 5.0
26/01:30am 6.4 -1.1 0.9 68 2.2 WNW 30 46 16 25 1008.0 1008.3 5.0
26/01:00am 6.6 -1.0 0.5 65 2.4 WNW 30 50 16 27 1007.6 1007.9 5.0
26/12:44am 6.5 -0.7 0.8 67 2.3 WNW 28 48 15 26 1007.7 1008.0 5.0
26/12:30am 6.2 -0.2 0.9 69 2.1 WNW 24 44 13 24 1007.6 1007.9 5.0
26/12:00am 6.1 -0.4 0.6 68 2.2 WNW 24 35 13 19 1007.4 1007.7 5.0
 
Date/Time
EST
Temp
°C
App
Temp
°C
Dew
Point
°C
Rel
Hum
%
Delta-T
°C
Wind Press
QNH
hPa
Press
MSL
hPa
Rain since
9am
mm
Dir  Spd
km/h
Gust
km/h
Spd
kts
Gust
kts
25/11:30pm 6.4 -1.1 0.9 68 2.2 WNW 30 46 16 25 1007.2 1007.5 5.0
25/11:21pm 6.3 -0.9 1.0 69 2.1 WNW 28 46 15 25 1006.9 1007.3 5.0
25/11:00pm 6.3 -0.8 1.2 70 2.1 WNW 28 41 15 22 1007.0 1007.4 5.0
25/10:30pm 6.4 -1.1 1.1 69 2.1 WNW 30 50 16 27 1006.5 1006.9 5.0
25/10:05pm 6.5 -1.0 1.4 70 2.1 WNW 30 48 16 26 1006.5 1006.9 5.0
25/10:00pm 6.4 -0.7 1.5 71 2.0 WNW 28 43 15 23 1006.3 1006.7 5.0
25/09:30pm 6.7 -1.1 1.4 69 2.2 WNW 32 50 17 27 1006.2 1006.5 5.0
25/09:00pm 6.8 -0.2 1.9 71 2.0 WNW 28 48 15 26 1006.0 1006.3 5.0
25/08:30pm 7.7 0.4 2.4 69 2.2 WNW 30 50 16 27 1005.4 1005.7 5.0
25/08:03pm 7.9 0.0 2.4 68 2.3 WNW 33 52 18 28 1005.0 1005.3 5.0
25/08:00pm 7.9 0.3 2.6 69 2.3 WNW 32 48 17 26 1005.0 1005.3 5.0
25/07:31pm 7.9 0.4 3.2 72 2.0 WNW 32 50 17 27 1004.9 1005.2 5.0
25/07:30pm 7.9 0.2 3.2 72 2.0 WNW 33 50 18 27 1004.9 1005.2 5.0
25/07:02pm 8.2 1.5 3.5 72 2.0 WNW 28 46 15 25 1003.9 1004.2 5.0
25/07:00pm 8.3 2.0 3.6 72 2.1 NW 26 39 14 21 1004.0 1004.3 5.0
25/06:30pm 7.9 1.3 4.3 78 1.6 NW 28 46 15 25 1003.3 1003.6 5.0
25/06:00pm 7.0 0.9 4.8 86 1.0 WNW 26 43 14 23 1003.7 1004.0 4.8
25/05:30pm 8.9 1.6 7.0 88 0.9 WNW 35 57 19 31 1003.1 1003.4 3.2
25/05:28pm 8.9 1.6 7.2 89 0.8 WNW 35 54 19 29 1002.8 1003.1 2.8
25/05:25pm 9.1 2.2 7.2 88 0.9 NW 33 54 18 29 1002.9 1003.2 2.2
25/05:00pm 9.5 1.7 6.8 83 1.3 NNW 37 57 20 31 1000.8 1001.1 0.0
25/04:30pm 10.0 1.3 6.0 76 1.9 NNW 41 65 22 35 1000.1 1000.4 0.0
25/04:00pm 10.2 1.4 5.6 73 2.2 NNW 41 72 22 39 1000.6 1000.9 0.0
25/03:30pm 10.7 2.7 5.5 70 2.4 NNW 37 61 20 33 1001.3 1001.6 0.0
25/03:00pm 11.1 1.8 5.2 67 2.8 NNW 43 65 23 35 1001.8 1002.1 0.0
25/02:30pm 11.5 3.7 4.7 63 3.1 NNW 35 61 19 33 1003.0 1003.3 0.0
25/02:00pm 11.3 3.6 3.6 59 3.5 NW 33 52 18 28 1003.3 1003.6 0.0
25/01:32pm 11.6 4.1 3.4 57 3.7 NNW 32 50 17 27 1003.8 1004.1 0.0
25/01:30pm 11.7 4.2 3.5 57 3.7 NNW 32 50 17 27 1004.0 1004.3 0.0
25/01:00pm 11.4 4.3 3.7 59 3.5 NNW 30 44 16 24 1005.4 1005.7 0.0
25/12:30pm 11.1 3.9 3.2 58 3.5 NW 30 48 16 26 1006.2 1006.5 0.0
25/12:20pm 11.2 4.5 3.5 59 3.4 NW 28 50 15 27 1006.3 1006.7 0.0
25/12:00pm 11.0 3.9 3.8 61 3.2 WNW 30 46 16 25 1006.9 1007.3 0.0
25/11:54am 10.6 3.9 3.4 61 3.2 NW 28 48 15 26 1007.0 1007.4 0.0
25/11:30am 10.6 4.1 2.9 59 3.4 NW 26 41 14 22 1007.0 1007.4 0.0
25/11:00am 10.3 4.9 4.5 67 2.6 WNW 22 35 12 19 1007.8 1008.1 0.0
25/10:30am 9.4 3.6 4.4 71 2.2 WNW 24 41 13 22 1008.1 1008.4 0.0
25/10:00am 9.4 2.8 4.2 70 2.3 WNW 28 43 15 23 1008.0 1008.3 0.0
25/09:30am 8.7 4.0 5.3 79 1.5 WNW 19 30 10 16 1008.1 1008.4 0.0
25/09:00am 8.4 3.2 5.3 81 1.4 WNW 22 35 12 19 1008.2 1008.5 0.0
25/08:30am 7.7 2.2 5.7 87 0.9 WNW 24 32 13 17 1008.1 1008.4 0.0
25/08:00am 7.8 1.8 5.1 83 1.2 WNW 26 43 14 23 1007.8 1008.1 0.0
25/07:30am 8.1 2.8 5.0 81 1.4 WNW 22 37 12 20 1007.3 1007.6 0.0
25/07:00am 8.1 2.5 5.2 82 1.3 WNW 24 35 13 19 1006.6 1007.0 0.0
25/06:30am 8.2 2.5 5.0 80 1.4 WNW 24 37 13 20 1006.2 1006.5 0.0
25/06:00am 7.7 2.9 4.7 81 1.3 NW 19 32 10 17 1005.9 1006.2 0.0
25/05:30am 6.7 1.7 3.7 81 1.3 NW 19 35 10 19 1005.7 1006.0 0.0
25/05:00am 6.7 1.7 3.5 80 1.4 NW 19 30 10 16 1005.2 1005.5 0.0
25/04:30am 6.9 1.9 3.5 79 1.5 NW 19 28 10 15 1004.9 1005.2 0.0
25/04:00am 6.8 1.5 3.2 78 1.5 NW 20 30 11 16 1004.8 1005.1 0.0
25/03:30am 6.8 0.8 3.2 78 1.5 NW 24 35 13 19 1004.4 1004.7 0.0
25/03:00am 6.9 0.5 3.2 77 1.6 NW 26 37 14 20 1004.1 1004.4 0.0
25/02:30am 6.7 0.7 3.1 78 1.5 NW 24 41 13 22 1004.1 1004.4 0.0
25/02:00am 6.3 0.6 2.9 79 1.4 NW 22 32 12 17 1004.0 1004.3 0.0
25/01:30am 6.3 1.0 3.1 80 1.4 NW 20 32 11 17 1003.8 1004.1 0.0
25/01:00am 6.3 1.0 3.1 80 1.4 NW 20 35 11 19 1003.9 1004.2 0.0
25/12:30am 6.5 1.2 3.1 79 1.4 NW 20 32 11 17 1004.0 1004.3 0.0
25/12:00am 6.7 1.6 3.3 79 1.5 NW 19 33 10 18 1004.0 1004.3 0.0
 
Date/Time
EST
Temp
°C
App
Temp
°C
Dew
Point
°C
Rel
Hum
%
Delta-T
°C
Wind Press
QNH
hPa
Press
MSL
hPa
Rain since
9am
mm
Dir  Spd
km/h
Gust
km/h
Spd
kts
Gust
kts
24/11:30pm 6.8 1.5 3.1 77 1.6 NW 20 32 11 17 1004.0 1004.3 0.0
24/11:00pm 6.6 1.3 3.0 78 1.5 NNW 20 32 11 17 1003.6 1003.9 0.0
24/10:30pm 6.9 1.3 3.2 77 1.6 NNW 22 33 12 18 1003.5 1003.8 0.0
24/10:00pm 6.9 1.6 3.2 77 1.6 NNW 20 28 11 15 1003.5 1003.8 0.0
24/09:30pm 7.0 1.8 3.4 78 1.5 NNW 20 32 11 17 1003.5 1003.8 0.0
24/09:00pm 7.1 1.9 3.3 77 1.6 NNW 20 32 11 17 1003.5 1003.8 0.0
24/08:30pm 7.5 2.3 3.7 77 1.6 NNW 20 32 11 17 1003.5 1003.8 0.0
24/08:00pm 7.4 2.8 3.6 77 1.7 NNW 17 28 9 15 1003.6 1003.9 0.0
24/07:30pm 7.6 2.6 3.8 77 1.7 NNW 19 30 10 16 1003.4 1003.7 0.0
24/07:00pm 8.0 2.5 4.0 76 1.8 NNW 22 37 12 20 1003.5 1003.8 0.0
24/06:30pm 8.3 3.7 3.9 74 1.9 N 17 26 9 14 1003.3 1003.6 0.0
24/06:00pm 8.5 3.6 4.1 74 2.0 N 19 32 10 17 1003.2 1003.5 0.0
24/05:30pm 9.0 3.8 3.6 69 2.4 N 20 32 11 17 1003.0 1003.3 0.0
24/05:00pm 9.5 4.3 3.7 67 2.6 N 20 28 11 15 1003.1 1003.4 0.0
24/04:30pm 9.0 4.8 4.0 71 2.2 NNW 15 26 8 14 1003.3 1003.6 0.0
24/04:00pm 8.7 3.8 3.9 72 2.1 N 19 26 10 14 1003.7 1004.0 0.0
24/03:30pm 8.8 2.1 3.4 69 2.4 NNW 28 39 15 21 1004.1 1004.4 0.0
24/03:00pm 9.0 3.0 3.4 68 2.5 NNW 24 35 13 19 1004.5 1004.8 0.0
24/02:30pm 9.2 4.0 3.8 69 2.4 NNW 20 33 11 18 1004.9 1005.2 0.0
24/02:07pm 9.7 3.0 3.4 65 2.8 NNW 28 46 15 25 1004.9 1005.2 0.0
24/02:00pm 10.4 3.4 3.9 64 2.9 NNW 30 46 16 25 1004.9 1005.2 0.0
24/01:41pm 10.0 2.9 3.7 65 2.8 NNW 30 48 16 26 1004.9 1005.2 0.0
24/01:30pm 9.7 2.1 3.0 63 2.9 NNW 32 46 17 25 1005.1 1005.4 0.0
24/01:00pm 9.5 1.7 3.0 64 2.8 NNW 33 52 18 28 1005.7 1006.0 0.0
24/12:30pm 9.3 2.2 3.5 67 2.5 NNW 30 50 16 27 1006.1 1006.4 0.0
24/12:01pm 9.0 1.3 3.2 67 2.5 NNW 33 52 18 28 1006.5 1006.9 0.0
24/12:00pm 9.0 0.9 3.4 68 2.5 NNW 35 52 19 28 1006.5 1006.9 0.0
24/11:38am 8.8 1.1 3.2 68 2.4 NNW 33 52 18 28 1007.2 1007.5 0.0
24/11:30am 8.7 0.9 3.1 68 2.4 NNW 33 46 18 25 1007.3 1007.6 0.0
24/11:00am 8.4 1.2 3.1 69 2.3 N 30 44 16 24 1007.8 1008.1 0.0
24/10:30am 8.1 1.3 3.0 70 2.2 NNW 28 43 15 23 1008.4 1008.7 0.0
24/10:00am 7.5 1.0 2.8 72 2.0 NNW 26 43 14 23 1008.5 1008.8 0.0
24/09:30am 7.0 0.2 2.9 75 1.7 NNW 28 43 15 23 1008.7 1009.0 0.0
24/09:00am 6.2 0.1 2.7 78 1.5 NNW 24 39 13 21 1009.0 1009.3 2.0
24/08:30am 5.2 -0.2 2.4 82 1.2 N 20 28 11 15 1009.1 1009.4 2.0
24/08:00am 4.7 -1.1 2.1 83 1.1 NNW 22 35 12 19 1009.2 1009.5 2.0
24/07:30am 3.9 -1.5 1.4 84 1.0 NNW 19 30 10 16 1009.2 1009.5 2.0
24/07:00am 3.5 -0.8 1.1 84 0.9 N 13 17 7 9 1009.5 1009.8 2.0
24/06:30am 3.7 -0.2 1.1 83 1.0 NNW 11 17 6 9 1009.6 1009.9 2.0
24/06:00am 3.6 -0.3 1.2 84 0.9 NNW 11 17 6 9 1009.6 1009.9 2.0

Other Formats:

Comma delimited format used in spreadsheet applications
http://www.bom.gov.au/fwo/IDV60801/IDV60801.94863.axf

JavaScript Object Notation format (JSON) in row-major order
http://www.bom.gov.au/fwo/IDV60801/IDV60801.94863.json